createdAt,value
2022-11-20T00:02:23.429Z,17.38
2022-11-20T00:07:25.161Z,17.02
2022-11-20T00:12:26.982Z,14.63
2022-11-20T00:17:28.709Z,15.18
2022-11-20T00:22:30.457Z,18.25
2022-11-20T00:27:32.217Z,16.50
2022-11-20T00:32:34.026Z,16.75
2022-11-20T00:37:35.971Z,18.77
2022-11-20T00:42:37.675Z,18.27
2022-11-20T00:47:39.386Z,18.48
2022-11-20T00:52:41.340Z,16.63
2022-11-20T00:57:43.076Z,15.98
2022-11-20T01:02:44.783Z,16.70
2022-11-20T01:07:46.481Z,19.38
2022-11-20T01:13:08.171Z,18.45
2022-11-20T01:18:09.917Z,17.58
2022-11-20T01:23:11.645Z,14.82
2022-11-20T01:28:13.403Z,19.23
2022-11-20T01:33:15.124Z,16.38
2022-11-20T01:38:17.478Z,15.77
2022-11-20T01:43:23.667Z,13.95
2022-11-20T01:48:43.677Z,15.48
2022-11-20T01:53:46.708Z,17.60
2022-11-20T01:58:53.955Z,15.98
2022-11-20T02:03:56.018Z,15.77
2022-11-20T02:08:57.721Z,18.83
2022-11-20T02:14:00.460Z,17.60
2022-11-20T02:19:07.042Z,18.90
2022-11-20T02:24:14.751Z,15.75
2022-11-20T02:29:23.700Z,16.85
2022-11-20T02:34:25.455Z,16.05
2022-11-20T02:39:29.264Z,17.77
2022-11-20T02:44:31.032Z,15.57
2022-11-20T02:49:32.777Z,16.85
2022-11-20T02:54:34.600Z,18.27
2022-11-20T02:59:36.313Z,15.77
2022-11-20T03:04:38.193Z,15.27
2022-11-20T03:09:40.106Z,14.82
2022-11-20T03:14:41.858Z,15.07
2022-11-20T03:19:43.607Z,15.88
2022-11-20T03:24:45.359Z,14.80
2022-11-20T03:29:47.121Z,15.75
2022-11-20T03:34:48.841Z,15.48
2022-11-20T03:39:50.565Z,15.38
2022-11-20T03:44:52.426Z,15.63
2022-11-20T03:49:54.200Z,16.75
2022-11-20T03:54:55.985Z,15.98
2022-11-20T03:59:57.756Z,14.60
2022-11-20T04:04:59.502Z,17.25
2022-11-20T04:10:01.226Z,16.58
2022-11-20T04:15:03.107Z,16.35
2022-11-20T04:20:05.347Z,15.52
2022-11-20T04:25:07.433Z,13.02
2022-11-20T04:30:09.581Z,13.38
2022-11-20T04:35:11.333Z,14.50
2022-11-20T04:40:13.577Z,15.25
2022-11-20T04:45:15.330Z,18.20
2022-11-20T04:50:17.236Z,16.88
2022-11-20T04:55:18.955Z,15.82
2022-11-20T05:00:20.728Z,14.45
2022-11-20T05:05:22.539Z,15.18
2022-11-20T05:10:25.275Z,15.68
2022-11-20T05:15:27.014Z,14.98
2022-11-20T05:20:28.999Z,15.70
2022-11-20T05:25:30.734Z,18.50
2022-11-20T05:30:32.481Z,17.48
2022-11-20T05:35:34.319Z,18.23
2022-11-20T05:40:36.255Z,14.40
2022-11-20T05:45:38.019Z,19.33
2022-11-20T05:50:40.777Z,18.67
2022-11-20T05:55:42.523Z,18.95
2022-11-20T06:00:44.242Z,17.33
2022-11-20T06:05:46.023Z,16.25
2022-11-20T06:10:47.753Z,19.13
2022-11-20T06:15:50.993Z,22.77
2022-11-20T06:21:04.606Z,19.45
2022-11-20T06:26:14.776Z,17.60
2022-11-20T06:31:19.092Z,17.98
2022-11-20T06:36:22.631Z,15.20
2022-11-20T06:41:24.541Z,14.10
2022-11-20T06:46:26.435Z,16.00
2022-11-20T06:51:28.210Z,15.50
2022-11-20T06:56:29.957Z,15.23
2022-11-20T07:01:31.681Z,16.02
2022-11-20T07:06:33.403Z,18.52
2022-11-20T07:11:35.105Z,17.63
2022-11-20T07:16:36.819Z,18.02
2022-11-20T07:21:38.541Z,16.08
2022-11-20T07:26:40.263Z,19.33
2022-11-20T07:31:42.240Z,15.90
2022-11-20T07:36:43.940Z,17.77
2022-11-20T07:41:45.751Z,16.27
2022-11-20T07:46:47.475Z,18.48
2022-11-20T07:51:52.394Z,16.52
2022-11-20T07:56:55.289Z,17.50
2022-11-20T08:01:57.246Z,18.05
2022-11-20T08:06:59.054Z,17.33
2022-11-20T08:12:19.277Z,19.77
2022-11-20T08:17:20.994Z,22.30
2022-11-20T08:22:22.766Z,19.45
2022-11-20T08:27:24.503Z,19.58
2022-11-20T08:32:26.234Z,17.15
2022-11-20T08:37:27.968Z,21.60
2022-11-20T08:42:29.678Z,16.25
2022-11-20T08:47:31.413Z,16.63
2022-11-20T08:52:35.708Z,26.27
2022-11-20T08:57:41.477Z,27.23
2022-11-20T09:02:43.198Z,17.08
2022-11-20T09:07:44.940Z,18.83
2022-11-20T09:12:50.115Z,15.55
2022-11-20T09:17:55.871Z,15.73
2022-11-20T09:22:58.337Z,15.25
2022-11-20T09:28:00.459Z,20.98
2022-11-20T09:33:02.205Z,22.92
2022-11-20T09:38:07.789Z,20.27
2022-11-20T09:43:24.510Z,18.17
2022-11-20T09:48:44.415Z,18.85
2022-11-20T09:54:03.027Z,18.48
2022-11-20T09:59:07.482Z,18.88
2022-11-20T10:04:20.846Z,17.80
2022-11-20T10:09:32.083Z,16.20
2022-11-20T10:14:51.913Z,16.35
2022-11-20T10:20:18.559Z,15.15
2022-11-20T10:25:22.782Z,14.98
2022-11-20T10:30:26.243Z,21.38
2022-11-20T10:35:50.607Z,19.38
2022-11-20T10:41:17.199Z,16.27
2022-11-20T10:46:25.244Z,17.30
2022-11-20T10:52:02.868Z,15.93
2022-11-20T10:57:24.173Z,15.80
2022-11-20T11:02:52.657Z,14.88
2022-11-20T11:07:59.521Z,14.52
2022-11-20T11:13:01.375Z,18.50
2022-11-20T11:18:03.252Z,13.35
2022-11-20T11:23:05.553Z,10.88
2022-11-20T11:28:19.746Z,11.35
2022-11-20T11:33:23.812Z,11.60
2022-11-20T11:38:44.053Z,14.15
2022-11-20T11:44:13.883Z,10.85
2022-11-20T11:49:18.569Z,11.70
2022-11-20T11:54:31.465Z,11.95
2022-11-20T11:59:42.279Z,11.13
2022-11-20T12:05:10.467Z,10.98
2022-11-20T12:10:42.051Z,11.95
2022-11-20T12:15:46.973Z,13.23
2022-11-20T12:21:00.233Z,14.98
2022-11-20T12:26:09.409Z,18.30
2022-11-20T12:31:41.387Z,14.10
2022-11-20T12:36:57.810Z,14.52
2022-11-20T12:42:50.330Z,16.85
2022-11-20T12:48:04.006Z,15.38
2022-11-20T12:53:18.006Z,13.50
2022-11-20T12:58:53.086Z,15.67
2022-11-20T13:08:59.272Z,16.95
2022-11-20T13:14:40.901Z,16.60
2022-11-20T13:19:46.756Z,15.48
2022-11-20T13:24:53.127Z,14.13
2022-11-20T13:30:18.046Z,15.27
2022-11-20T13:40:59.946Z,18.70
2022-11-20T13:46:07.365Z,20.30
2022-11-20T13:51:48.205Z,15.93
2022-11-20T13:57:21.600Z,19.30
2022-11-20T14:02:25.958Z,27.98
2022-11-20T14:07:40.697Z,17.10
2022-11-20T14:12:42.583Z,16.77
2022-11-20T14:17:44.334Z,16.30
2022-11-20T14:22:53.062Z,15.52
2022-11-20T14:27:57.214Z,14.00
2022-11-20T14:33:04.436Z,15.93
2022-11-20T14:38:13.126Z,15.98
2022-11-20T14:43:23.174Z,14.90
2022-11-20T14:48:44.183Z,14.82
2022-11-20T14:53:45.915Z,13.77
2022-11-20T14:58:57.721Z,14.10
2022-11-20T15:04:12.380Z,13.15
2022-11-20T15:09:16.136Z,15.73
2022-11-20T15:14:17.969Z,16.57
2022-11-20T15:19:25.068Z,12.82
2022-11-20T15:24:26.873Z,15.23
2022-11-20T15:29:28.990Z,14.52
2022-11-20T15:34:30.727Z,16.08
2022-11-20T15:39:32.438Z,12.98
2022-11-20T15:44:34.193Z,12.98
2022-11-20T15:49:36.533Z,12.63
2022-11-20T15:54:38.240Z,10.85
2022-11-20T15:59:42.201Z,12.30
2022-11-20T16:04:44.503Z,11.23
2022-11-20T16:09:46.282Z,11.15
2022-11-20T16:15:12.310Z,12.68
2022-11-20T16:20:16.492Z,13.10
2022-11-20T16:25:18.235Z,12.02
2022-11-20T16:30:20.206Z,14.32
2022-11-20T16:35:21.934Z,14.05
2022-11-20T16:40:24.511Z,13.43
2022-11-20T16:45:30.065Z,14.13
2022-11-20T16:50:34.492Z,12.90
2022-11-20T16:55:36.255Z,12.10
2022-11-20T17:00:39.451Z,13.40
2022-11-20T17:05:41.207Z,10.68
2022-11-20T17:10:42.961Z,11.18
2022-11-20T17:15:44.683Z,10.18
2022-11-20T17:20:52.235Z,11.93
2022-11-20T17:25:53.961Z,10.73
2022-11-20T17:31:00.685Z,11.75
2022-11-20T17:36:02.584Z,11.32
2022-11-20T17:41:10.030Z,10.23
2022-11-20T17:46:17.231Z,10.13
2022-11-20T17:51:24.770Z,8.93
2022-11-20T17:56:48.756Z,10.65
2022-11-20T18:01:50.688Z,10.17
2022-11-20T18:06:52.559Z,11.35
2022-11-20T18:11:54.334Z,9.65
2022-11-20T18:17:13.995Z,10.65
2022-11-20T18:22:17.860Z,11.85
2022-11-20T18:27:21.119Z,9.97
2022-11-20T18:32:23.371Z,10.35
2022-11-20T18:37:25.245Z,11.30
2022-11-20T18:42:45.629Z,10.63
2022-11-20T18:47:47.363Z,12.93
2022-11-20T18:52:49.182Z,11.70
2022-11-20T18:57:51.032Z,11.25
2022-11-20T19:02:54.632Z,11.73
2022-11-20T19:07:56.385Z,11.38
2022-11-20T19:12:59.188Z,9.05
2022-11-20T19:18:01.291Z,7.88
2022-11-20T19:23:03.077Z,6.38
2022-11-20T19:28:05.311Z,6.90
2022-11-20T19:33:07.956Z,7.57
2022-11-20T19:38:10.476Z,7.03
2022-11-20T19:43:12.227Z,6.85
2022-11-20T19:48:14.076Z,6.20
2022-11-20T19:53:16.031Z,5.70
2022-11-20T19:58:17.868Z,5.72
2022-11-20T20:03:19.744Z,5.18
2022-11-20T20:08:21.545Z,4.60
2022-11-20T20:13:24.787Z,5.45
2022-11-20T20:18:26.537Z,5.10
2022-11-20T20:23:28.291Z,5.47
2022-11-20T20:28:30.593Z,5.32
2022-11-20T20:33:32.360Z,5.10
2022-11-20T20:38:34.715Z,5.50
2022-11-20T20:43:57.325Z,4.80
2022-11-20T20:48:59.436Z,4.00
2022-11-20T20:54:01.386Z,4.63
2022-11-20T20:59:04.204Z,4.03
2022-11-20T21:04:05.974Z,3.42
2022-11-20T21:09:07.729Z,3.22
2022-11-20T21:14:09.496Z,3.30
2022-11-20T21:19:11.986Z,3.00
2022-11-20T21:24:13.822Z,3.40
2022-11-20T21:29:16.140Z,2.72
2022-11-20T21:34:18.581Z,2.42
2022-11-20T21:39:21.833Z,2.00
2022-11-20T21:44:30.905Z,2.40
2022-11-20T21:49:33.318Z,2.25
2022-11-20T21:54:36.167Z,2.58
2022-11-20T21:59:37.930Z,2.72
2022-11-20T22:04:39.885Z,2.53
2022-11-20T22:09:41.742Z,2.42
2022-11-20T22:14:44.419Z,2.13
2022-11-20T22:19:46.197Z,2.42
2022-11-20T22:24:47.964Z,2.33
2022-11-20T22:29:49.731Z,2.45
2022-11-20T22:34:51.459Z,2.30
2022-11-20T22:39:53.205Z,2.50
2022-11-20T22:44:54.960Z,2.20
2022-11-20T22:49:56.697Z,2.20
2022-11-20T22:54:58.617Z,2.17
2022-11-20T23:00:00.444Z,2.22
2022-11-20T23:05:02.191Z,2.28
2022-11-20T23:10:04.618Z,2.40
2022-11-20T23:15:07.184Z,2.70
2022-11-20T23:20:10.199Z,2.50
2022-11-20T23:25:11.989Z,2.72
2022-11-20T23:30:13.912Z,2.42
2022-11-20T23:35:15.731Z,2.40
2022-11-20T23:40:17.473Z,3.05
2022-11-20T23:45:19.272Z,2.40
2022-11-20T23:50:21.068Z,2.72
2022-11-20T23:55:22.842Z,3.08
